Terminal Aerodrome Forecast
Issued by NWS

Home | Current Version | Previous Version | Text Only | Print | Product List | Glossary Off
Versions: 1 2 3 4 5 6 7 8 9 10 11 12 13

000
FTUS43 KTOP 270500
TAFFOE
TAF
KFOE 270520Z 2706/2806 33008KT P6SM SCT150
     FM271400 35014G21KT P6SM SCT150
     FM280100 35005KT P6SM SKC=

USA.gov is the U.S. government's official web portal to all federal, state and local government web resources and services.